createdAt,value
2018-12-01T00:02:27.797Z,-5.10
2018-12-01T00:07:50.029Z,-5.10
2018-12-01T00:12:56.354Z,-5.20
2018-12-01T00:18:01.746Z,-5.10
2018-12-01T00:23:07.626Z,-5.20
2018-12-01T00:28:12.994Z,-5.30
2018-12-01T00:33:19.572Z,-5.40
2018-12-01T00:38:24.886Z,-5.30
2018-12-01T00:43:30.147Z,-5.30
2018-12-01T00:48:35.446Z,-5.30
2018-12-01T00:53:40.756Z,-5.40
2018-12-01T00:58:46.113Z,-5.40
2018-12-01T01:03:52.512Z,-5.40
2018-12-01T01:08:57.838Z,-5.40
2018-12-01T01:14:04.130Z,-5.50
2018-12-01T01:19:09.388Z,-5.50
2018-12-01T01:29:37.965Z,-5.50
2018-12-01T01:34:52.827Z,-5.70
2018-12-01T01:40:16.859Z,-5.80
2018-12-01T01:45:30.463Z,-5.80
2018-12-01T01:50:42.561Z,-5.90
2018-12-01T01:55:47.923Z,-5.90
2018-12-01T02:00:53.277Z,-5.90
2018-12-01T02:06:04.237Z,-5.80
2018-12-01T02:11:17.328Z,-5.90
2018-12-01T02:16:27.451Z,-6.00
2018-12-01T02:21:33.818Z,-6.20
2018-12-01T02:26:43.576Z,-6.20
2018-12-01T02:31:53.327Z,-6.20
2018-12-01T02:37:01.399Z,-6.30
2018-12-01T02:42:12.458Z,-6.30
2018-12-01T02:47:17.912Z,-6.40
2018-12-01T02:52:23.284Z,-6.40
2018-12-01T02:57:29.846Z,-6.50
2018-12-01T03:02:45.116Z,-6.50
2018-12-01T03:07:50.416Z,-6.60
2018-12-01T03:12:55.760Z,-6.60
2018-12-01T03:18:04.791Z,-6.60
2018-12-01T03:23:10.532Z,-6.50
2018-12-01T03:28:15.827Z,-6.70
2018-12-01T03:33:21.943Z,-6.70
2018-12-01T03:38:32.149Z,-6.70
2018-12-01T03:44:02.404Z,-6.80
2018-12-01T03:49:10.757Z,-6.80
2018-12-01T03:54:17.662Z,-6.80
2018-12-01T03:59:23.005Z,-6.90
2018-12-01T04:04:31.010Z,-6.90
2018-12-01T04:09:36.293Z,-7.00
2018-12-01T04:14:42.546Z,-7.00
2018-12-01T04:19:47.997Z,-7.00
2018-12-01T04:24:53.311Z,-7.00
2018-12-01T04:29:58.700Z,-7.00
2018-12-01T04:35:07.554Z,-7.10
2018-12-01T04:40:12.912Z,-7.10
2018-12-01T04:45:18.609Z,-7.10
2018-12-01T04:50:27.775Z,-7.10
2018-12-01T04:55:34.266Z,-7.10
2018-12-01T05:00:40.574Z,-7.10
2018-12-01T05:05:46.879Z,-7.10
2018-12-01T05:10:53.210Z,-7.00
2018-12-01T05:16:00.841Z,-7.20
2018-12-01T05:21:07.985Z,-7.30
2018-12-01T05:26:14.769Z,-7.30
2018-12-01T05:31:20.111Z,-7.40
2018-12-01T05:36:25.522Z,-7.40
2018-12-01T05:41:30.840Z,-7.50
2018-12-01T05:46:40.550Z,-7.50
2018-12-01T05:51:50.273Z,-7.60
2018-12-01T05:56:58.692Z,-7.60
2018-12-01T06:02:04.015Z,-7.60
2018-12-01T06:07:12.110Z,-7.60
2018-12-01T06:12:18.470Z,-7.70
2018-12-01T06:17:24.682Z,-7.70
2018-12-01T06:22:30.022Z,-7.80
2018-12-01T06:27:39.543Z,-7.80
2018-12-01T06:32:47.157Z,-7.80
2018-12-01T06:37:52.467Z,-7.70
2018-12-01T06:42:57.742Z,-7.80
2018-12-01T06:48:03.070Z,-7.90
2018-12-01T06:53:08.381Z,-7.90
2018-12-01T06:58:14.838Z,-7.90
2018-12-01T07:03:21.137Z,-7.80
2018-12-01T07:08:26.444Z,-7.80
2018-12-01T07:13:31.761Z,-7.60
2018-12-01T07:18:48.075Z,-7.40
2018-12-01T07:23:53.416Z,-7.50
2018-12-01T07:28:58.684Z,-7.60
2018-12-01T07:34:04.203Z,-7.60
2018-12-01T07:39:10.230Z,-7.60
2018-12-01T07:44:16.055Z,-7.50
2018-12-01T07:49:21.388Z,-7.50
2018-12-01T07:54:26.703Z,-7.40
2018-12-01T07:59:31.986Z,-7.40
2018-12-01T08:04:38.225Z,-7.40
2018-12-01T08:09:43.546Z,-7.30
2018-12-01T08:14:48.838Z,-7.10
2018-12-01T08:19:54.173Z,-7.10
2018-12-01T08:24:59.491Z,-7.00
2018-12-01T08:30:11.906Z,-6.90
2018-12-01T08:35:17.247Z,-7.00
2018-12-01T08:40:23.987Z,-7.10
2018-12-01T08:45:29.611Z,-7.00
2018-12-01T08:50:34.917Z,-6.80
2018-12-01T08:55:40.218Z,-6.60
2018-12-01T09:00:49.851Z,-6.50
2018-12-01T09:05:56.713Z,-6.30
2018-12-01T09:11:03.013Z,-6.30
2018-12-01T09:16:11.452Z,-6.10
2018-12-01T09:21:17.972Z,-5.80
2018-12-01T09:26:23.301Z,-5.80
2018-12-01T09:31:28.573Z,-5.70
2018-12-01T09:36:35.413Z,-5.50
2018-12-01T09:41:40.778Z,-5.50
2018-12-01T09:46:48.314Z,-5.40
2018-12-01T09:51:54.017Z,-5.30
2018-12-01T09:56:59.544Z,-5.30
2018-12-01T10:02:07.234Z,-5.20
2018-12-01T10:07:16.380Z,-5.20
2018-12-01T10:12:21.697Z,-5.10
2018-12-01T10:17:26.985Z,-5.00
2018-12-01T10:22:32.274Z,-4.90
2018-12-01T10:27:38.343Z,-4.80
2018-12-01T10:32:43.733Z,-4.70
2018-12-01T10:38:19.138Z,-4.70
2018-12-01T10:43:25.110Z,-4.70
2018-12-01T10:48:31.359Z,-4.70
2018-12-01T10:53:45.832Z,-4.60
2018-12-01T10:59:45.087Z,-4.60
2018-12-01T11:04:50.445Z,-4.50
2018-12-01T11:09:56.352Z,-4.50
2018-12-01T11:15:03.003Z,-4.40
2018-12-01T11:20:10.665Z,-4.40
2018-12-01T11:25:16.131Z,-4.50
2018-12-01T11:30:21.427Z,-4.40
2018-12-01T11:35:26.748Z,-4.30
2018-12-01T11:40:38.997Z,-4.30
2018-12-01T11:45:44.330Z,-4.30
2018-12-01T11:50:49.679Z,-4.20
2018-12-01T11:56:03.746Z,-4.20
2018-12-01T12:01:09.105Z,-4.10
2018-12-01T12:06:14.487Z,-4.10
2018-12-01T12:11:19.794Z,-4.10
2018-12-01T12:16:25.063Z,-4.00
2018-12-01T12:21:30.471Z,-4.00
2018-12-01T12:26:35.833Z,-4.00
2018-12-01T12:31:41.198Z,-4.00
2018-12-01T12:36:47.601Z,-4.00
2018-12-01T12:41:52.890Z,-4.00
2018-12-01T12:46:58.204Z,-4.00
2018-12-01T12:52:03.502Z,-3.90
2018-12-01T12:57:08.843Z,-3.90
2018-12-01T13:02:15.294Z,-3.90
2018-12-01T13:07:20.632Z,-3.90
2018-12-01T13:12:26.037Z,-3.90
2018-12-01T13:17:31.362Z,-3.90
2018-12-01T13:22:36.718Z,-3.90
2018-12-01T13:27:43.423Z,-3.80
2018-12-01T13:33:01.902Z,-3.80
2018-12-01T13:38:07.635Z,-3.80
2018-12-01T13:43:13.094Z,-3.80
2018-12-01T13:48:57.170Z,-3.80
2018-12-01T13:54:02.490Z,-3.80
2018-12-01T13:59:07.841Z,-3.70
2018-12-01T14:04:14.206Z,-3.70
2018-12-01T14:09:20.834Z,-3.70
2018-12-01T14:14:26.239Z,-3.70
2018-12-01T14:19:33.307Z,-3.70
2018-12-01T14:24:39.685Z,-3.70
2018-12-01T14:29:48.374Z,-3.70
2018-12-01T14:34:54.828Z,-3.70
2018-12-01T14:40:01.745Z,-3.70
2018-12-01T14:45:11.683Z,-3.70
2018-12-01T14:50:22.679Z,-3.70
2018-12-01T14:55:28.018Z,-3.70
2018-12-01T15:00:35.347Z,-3.70
2018-12-01T15:05:41.572Z,-3.60
2018-12-01T15:10:46.999Z,-3.70
2018-12-01T15:15:52.427Z,-3.70
2018-12-01T15:21:01.427Z,-3.70
2018-12-01T15:26:15.961Z,-3.70
2018-12-01T15:31:21.297Z,-3.70
2018-12-01T15:36:26.686Z,-3.70
2018-12-01T15:41:32.152Z,-3.70
2018-12-01T15:46:46.588Z,-3.70
2018-12-01T15:51:52.528Z,-3.70
2018-12-01T15:56:58.967Z,-3.70
2018-12-01T16:02:07.731Z,-3.70
2018-12-01T16:07:14.291Z,-3.70
2018-12-01T16:12:19.890Z,-3.80
2018-12-01T16:17:26.307Z,-3.70
2018-12-01T16:22:32.654Z,-3.70
2018-12-01T16:27:39.050Z,-3.70
2018-12-01T16:32:49.432Z,-3.80
2018-12-01T16:37:57.388Z,-3.80
2018-12-01T16:43:04.558Z,-3.80
2018-12-01T16:48:09.969Z,-3.70
2018-12-01T16:53:16.853Z,-3.70
2018-12-01T16:58:22.215Z,-3.70
2018-12-01T17:03:27.575Z,-3.70
2018-12-01T17:08:36.263Z,-3.70
2018-12-01T17:13:42.554Z,-3.70
2018-12-01T17:18:48.270Z,-3.70
2018-12-01T17:23:53.841Z,-3.70
2018-12-01T17:28:59.190Z,-3.60
2018-12-01T17:34:05.420Z,-3.70
2018-12-01T17:39:13.322Z,-3.80
2018-12-01T17:44:18.669Z,-3.80
2018-12-01T17:49:24.100Z,-3.80
2018-12-01T17:54:29.568Z,-3.80
2018-12-01T17:59:34.914Z,-3.70
2018-12-01T18:04:40.754Z,-3.70
2018-12-01T18:09:46.072Z,-3.70
2018-12-01T18:14:52.986Z,-3.60
2018-12-01T18:20:14.059Z,-3.60
2018-12-01T18:25:19.615Z,-3.60
2018-12-01T18:30:36.864Z,-3.60
2018-12-01T18:35:43.712Z,-3.60
2018-12-01T18:40:49.988Z,-3.60
2018-12-01T18:45:58.537Z,-3.50
2018-12-01T18:51:05.055Z,-3.50
2018-12-01T18:56:28.058Z,-3.50
2018-12-01T19:01:37.535Z,-3.50
2018-12-01T19:06:42.861Z,-3.40
2018-12-01T19:11:48.484Z,-3.40
2018-12-01T19:16:54.981Z,-3.40
2018-12-01T19:22:02.319Z,-3.40
2018-12-01T19:27:08.641Z,-3.30
2018-12-01T19:32:14.090Z,-3.40
2018-12-01T19:37:22.334Z,-3.30
2018-12-01T19:42:34.438Z,-3.30
2018-12-01T19:47:40.775Z,-3.30
2018-12-01T19:52:46.212Z,-3.20
2018-12-01T19:57:56.642Z,-3.20
2018-12-01T20:03:08.726Z,-3.10
2018-12-01T20:08:17.480Z,-3.10
2018-12-01T20:13:30.193Z,-3.00
2018-12-01T20:18:35.493Z,-3.00
2018-12-01T20:23:41.083Z,-3.00
2018-12-01T20:28:47.406Z,-2.90
2018-12-01T20:33:55.111Z,-2.90
2018-12-01T20:39:10.869Z,-2.90
2018-12-01T20:44:16.234Z,-2.90
2018-12-01T20:49:22.477Z,-2.90
2018-12-01T20:54:45.655Z,-2.80
2018-12-01T20:59:53.331Z,-2.80
2018-12-01T21:05:00.277Z,-2.80
2018-12-01T21:10:10.091Z,-2.80
2018-12-01T21:15:15.738Z,-2.80
2018-12-01T21:20:22.168Z,-2.70
2018-12-01T21:25:30.973Z,-2.60
2018-12-01T21:30:36.344Z,-2.60
2018-12-01T21:35:41.686Z,-2.60
2018-12-01T21:40:49.380Z,-2.60
2018-12-01T21:45:57.963Z,-2.50
2018-12-01T21:51:04.045Z,-2.50
2018-12-01T21:56:11.569Z,-2.50
2018-12-01T22:01:20.778Z,-2.40
2018-12-01T22:06:28.055Z,-2.40
2018-12-01T22:11:37.397Z,-2.40
2018-12-01T22:16:43.783Z,-2.40
2018-12-01T22:21:50.082Z,-2.30
2018-12-01T22:26:55.422Z,-2.30
2018-12-01T22:32:00.787Z,-2.20
2018-12-01T22:37:06.304Z,-2.20
2018-12-01T22:42:11.843Z,-2.20
2018-12-01T22:47:17.230Z,-2.10
2018-12-01T22:52:23.627Z,-2.10
2018-12-01T22:57:30.998Z,-2.10
2018-12-01T23:02:37.149Z,-2.10
2018-12-01T23:07:42.488Z,-2.10
2018-12-01T23:12:48.959Z,-2.10
2018-12-01T23:17:55.217Z,-2.00
2018-12-01T23:23:00.541Z,-2.00
2018-12-01T23:28:07.362Z,-2.00
2018-12-01T23:33:15.885Z,-1.90
2018-12-01T23:38:21.193Z,-1.90
2018-12-01T23:43:27.425Z,-1.90
2018-12-01T23:48:32.724Z,-1.90
2018-12-01T23:53:38.039Z,-1.90
2018-12-01T23:58:43.346Z,-1.90
